METAR Data
IDs: Format: Raw Decoded Include TAF

Data at: 0002 UTC 26 Oct 2021

PARY 252356Z AUTO 26005KT 10SM FEW004 OVC070 M04/M05 A2926 RMK AO2 SLP923 60000 T10391050 11033 21044 51002 FZRANO
PARY 252351Z AUTO VRB04KT 10SM SCT004 OVC070 M04/M05 A2926 RMK AO2 FZRANO
PARY 252338Z AUTO 25006KT 10SM BKN004 OVC070 M04/M05 A2926 RMK AO2 FZRANO
PARY 252306Z AUTO VRB04KT 10SM SCT004 OVC070 M03/M04 A2926 RMK AO2 FZRANO
PARY 252256Z AUTO VRB06KT 10SM BKN004 OVC065 M03/M04 A2926 RMK AO2 SLP920 T10331044 FZRANO
PARY 252156Z AUTO 26004KT 10SM FEW004 OVC090 M03/M05 A2926 RMK AO2 SLP920 T10331050 FZRANO
PARY 252147Z AUTO VRB05KT 10SM SCT004 OVC090 M03/M05 A2925 RMK AO2 FZRANO
PARY 252104Z AUTO VRB03KT 10SM BKN004 OVC007 M04/M05 A2925 RMK AO2 FZRANO
PARY 252056Z AUTO 25005KT 10SM SCT004 OVC007 M04/M05 A2925 RMK AO2 SNB22E47 SLP917 P0000 60000 T10391050 52002 FZRANO
PARY 252048Z AUTO VRB04KT 9SM OVC007 M04/M05 A2925 RMK AO2 SNB22E47 CIG 004V009 P0000 FZRANO
PARY 252015Z AUTO 25005KT 10SM OVC005 M04/M05 A2925 RMK AO2 CIG 003V009 FZRANO
PARY 251956Z AUTO VRB05KT 10SM BKN007 BKN028 OVC095 M04/M05 A2925 RMK AO2 SNB15E33 CIG 003V008 SLP916 P0000 T10391050 FZRANO
PARY 251923Z AUTO 24006KT 9SM -SN BKN007 OVC100 M04/M06 A2924 RMK AO2 SNB15 CIG 004V008 P0000 FZRANO
PARY 251914Z AUTO VRB04KT 10SM BKN005 OVC100 M04/M06 A2924 RMK AO2 CIG 003V008 FZRANO
PARY 251856Z AUTO VRB03KT 10SM SCT005 BKN075 OVC100 M04/M06 A2924 RMK AO2 SLP915 T10441056 FZRANO
PARY 251854Z AUTO VRB05KT 10SM SCT005 BKN012 OVC100 M04/M06 A2924 RMK AO2 FZRANO
PARY 251843Z AUTO 26003KT 10SM FEW003 SCT012 OVC075 M04/M06 A2924 RMK AO2 FZRANO
PARY 251828Z AUTO 25006KT 10SM FEW003 BKN012 OVC075 M04/M06 A2924 RMK AO2 FZRANO
PARY 251804Z AUTO 25004KT 10SM SCT003 BKN075 OVC100 M04/M06 A2924 RMK AO2 FZRANO
PARY 251756Z AUTO 24004KT 10SM FEW075 OVC100 M04/M06 A2924 RMK AO2 SLP914 60000 T10441056 11028 21044 58001 FZRANO
PARY 251656Z AUTO VRB06KT 10SM SCT008 OVC050 M04/M05 A2924 RMK AO2 SLP914 T10391050 FZRANO
PARY 251654Z AUTO 27006KT 10SM SCT008 OVC050 M04/M05 A2924 RMK AO2 FZRANO
PARY 251609Z AUTO 26007KT 10SM BKN008 OVC050 M04/M05 A2924 RMK AO2 FZRANO
PARY 251556Z AUTO 26006KT 10SM FEW008 OVC050 M04/M05 A2924 RMK AO2 SLP914 T10391050 FZRANO
PARY 251456Z AUTO 26005KT 10SM FEW004 OVC048 M03/M04 A2924 RMK AO2 SNE18B38E49 SLP916 P0000 60000 T10331044 56004 FZRANO
PARY 251413Z AUTO VRB06KT 9SM -SN FEW004 BKN031 OVC048 M03/M04 A2924 RMK AO2 P0000 FZRANO
PARY 251356Z AUTO 26005KT 9SM -SN SCT031 BKN048 OVC080 M03/M04 A2925 RMK AO2 SLP917 P0000 T10331039 FZRANO
PARY 251337Z AUTO 25005KT 9SM -SN SCT029 BKN048 OVC085 M03/M04 A2925 RMK AO2 P0000 FZRANO
PARY 251256Z AUTO 25006KT 9SM -SN OVC027 M03/M04 A2926 RMK AO2 SLP920 P0000 T10281039 FZRANO
PARY 251203Z AUTO 25005KT 9SM -SN FEW003 BKN027 OVC036 M03/M03 A2927 RMK AO2 P0000 FZRANO
PARY 251156Z AUTO 24006KT 9SM -SN FEW003 SCT027 OVC038 M03/M03 A2927 RMK AO2 SLP923 P0000 60000 T10281033 11017 21028 58007 FZRANO
PARY 251056Z AUTO 25006KT 5SM -SN BR FEW008 OVC033 M02/M03 A2928 RMK AO2 SLP927 P0000 T10221033 FZRANO
PARY 251051Z AUTO 26006KT 5SM -SN BR FEW003 SCT016 OVC033 M02/M03 A2928 RMK AO2 P0000 FZRANO
PARY 251036Z AUTO 26006KT 9SM -SN SCT003 BKN011 OVC031 M02/M03 A2928 RMK AO2 P0000 FZRANO
PARY 251004Z AUTO 26004KT 4SM -SN BR BKN003 OVC026 M02/M03 A2929 RMK AO2 P0000 FZRANO
PARY 250956Z AUTO 26004KT 2 1/2SM -SN BR SCT003 BKN021 OVC026 M02/M03 A2929 RMK AO2 SLP930 P0000 T10221028 FZRANO
PARY 250951Z AUTO 26005KT 2SM -SN BR FEW003 BKN021 OVC026 M02/M03 A2929 RMK AO2 P0000 FZRANO
PARY 250931Z AUTO 25005KT 2 1/2SM -SN BR FEW003 BKN013 OVC021 M02/M03 A2930 RMK AO2 P0000 FZRANO
PARY 250923Z AUTO VRB04KT 8SM -SN BKN013 BKN030 OVC043 M02/M03 A2930 RMK AO2 P0000 FZRANO
PARY 250911Z AUTO VRB05KT 10SM -SN FEW003 SCT012 OVC043 M02/M03 A2929 RMK AO2 P0000 FZRANO
PARY 250856Z AUTO 26004KT 9SM -SN OVC043 M02/M03 A2929 RMK AO2 SLP932 P0000 60000 T10221028 56009 FZRANO
PARY 250839Z AUTO 26004KT 9SM -SN SCT003 SCT032 OVC043 M02/M03 A2929 RMK AO2 P0000 FZRANO
PARY 250811Z AUTO VRB05KT 3SM -SN BR OVC003 M02/M03 A2930 RMK AO2 CIG 001V006 P0000 FZRANO
PARY 250803Z AUTO 27005KT 1 1/4SM -SN BR BKN003 OVC011 M02/M03 A2930 RMK AO2 CIG 001V007 P0000 FZRANO
PARY 250756Z AUTO 28004KT 3/4SM -SN BR BKN003 OVC011 M02/M02 A2930 RMK AO2 UPB22E30SNE22B30 SLP934 P0000 T10171022 410061022 FZRANO
PARY 250751Z AUTO 28004KT 1SM -SN BR BKN003 OVC011 M02/M02 A2930 RMK AO2 UPB22E30SNE22B30 CIG 002V007 P0000 410061022 FZRANO
PARY 250748Z AUTO 29003KT 2SM -SN BR BKN003 OVC011 M02/M02 A2930 RMK AO2 UPB22E30SNE22B30 CIG 002V007 P0000 FZRANO
PARY 250707Z AUTO 25003KT 1 3/4SM -SN BR OVC003 M02/M03 A2931 RMK AO2 VIS 1 1/4V4 P0000 FZRANO
PARY 250656Z AUTO 27004KT 4SM -SN BR OVC003 M02/M03 A2931 RMK AO2 UPB11E38SNB15E26B38 SLP936 P0000 T10171028 FZRANO
PARY 250626Z AUTO 00000KT 9SM UP OVC003 M02/M03 A2931 RMK AO2 UPB11SNB15E26 P0000 FZRANO
PARY 250556Z AUTO 00000KT 10SM OVC005 M02/M03 A2932 RMK AO2 UPB44E49SNE44 SLP941 P0000 60000 T10221028 11017 21022 58011 FZRANO
PARY 250456Z AUTO 00000KT 9SM -SN OVC009 M02/M03 A2934 RMK AO2 CIG 006V012 SLP947 P0000 T10221033 FZRANO
PARY 250451Z AUTO 00000KT 9SM -SN BKN009 OVC031 M02/M03 A2934 RMK AO2 CIG 006V012 P0000 FZRANO
PARY 250437Z AUTO 00000KT 7SM -SN SCT007 BKN012 OVC031 M02/M03 A2935 RMK AO2 P0000 FZRANO
PARY 250430Z AUTO 06004KT 6SM -SN BR SCT012 SCT028 OVC033 M02/M03 A2935 RMK AO2 P0000 FZRANO
PARY 250356Z AUTO 05003KT 7SM -SN OVC010 M02/M03 A2935 RMK AO2 SLP952 P0000 T10221033 FZRANO
PARY 250340Z AUTO 00000KT 8SM -SN BKN010 OVC029 M02/M03 A2936 RMK AO2 CIG 008V012 P0000 FZRANO
PARY 250256Z AUTO 08005KT 9SM -SN OVC009 M02/M03 A2937 RMK AO2 SLP959 P0000 60000 T10221028 58010 FZRANO
PARY 250245Z AUTO 07005KT 7SM -SN SCT003 OVC009 M02/M03 A2937 RMK AO2 CIG 007V011 P0000 FZRANO
PARY 250236Z AUTO 08006KT 2SM -SN BR SCT003 BKN009 OVC015 M02/M03 A2937 RMK AO2 VIS 1V5 CIG 007V011 P0000 FZRANO
PARY 250230Z AUTO 08005KT 1 1/4SM -SN BR BKN003 BKN007 OVC014 M02/M03 A2938 RMK AO2 VIS 1/2V2 CIG 001V005 P0000 FZRANO
PARY 250203Z AUTO 07005KT 3/4SM -SN BR OVC003 M02/M03 A2938 RMK AO2 CIG 002V006 P0000 FZRANO
PARY 250156Z AUTO 08005KT 1SM -SN BR OVC003 M02/M03 A2938 RMK AO2 SLP964 P0000 T10221028 FZRANO
PARY 250148Z AUTO 07005KT 1 3/4SM -SN BR OVC003 M02/M03 A2938 RMK AO2 P0000 FZRANO
PARY 250056Z AUTO 07003KT 10SM -SN OVC003 M02/M03 A2939 RMK AO2 SNE13B55 SLP967 P0000 T10171028 FZRANO
PARY 250033Z AUTO 05004KT 10SM OVC003 M02/M03 A2939 RMK AO2 SNE13 P0000 FZRANO
PARY 250004Z AUTO 08004KT 9SM -SN OVC005 M02/M03 A2940 RMK AO2 CIG 002V008 P0000 FZRANO
PARY 242356Z AUTO 07004KT 9SM -SN OVC007 M02/M03 A2940 RMK AO2 CIG 002V008 SLP970 P0000 60000 T10171028 11017 21022 58004 FZRANO
PARY 242327Z AUTO 06005KT 3SM -SN BR SCT003 OVC007 M02/M03 A2941 RMK AO2 P0000 FZRANO
PARY 242313Z AUTO 07005KT 4SM -SN BR OVC005 M02/M03 A2941 RMK AO2 CIG 002V007 P0000 FZRANO
PARY 242306Z AUTO 07005KT 2 1/2SM -SN BR BKN005 OVC011 M02/M03 A2941 RMK AO2 CIG 003V007 P0000 FZRANO
PARY 242256Z AUTO 06005KT 1 3/4SM -SN BR BKN005 OVC011 M02/M03 A2941 RMK AO2 CIG 003V007 SLP973 P0000 T10221028 FZRANO
PARY 242249Z AUTO 06005KT 2SM -SN BR BKN005 OVC011 M02/M03 A2941 RMK AO2 VIS 1 1/2V2 1/2 CIG 003V007 P0000 FZRANO
PARY 242228Z AUTO 07004KT 1 3/4SM -SN BR OVC005 M02/M03 A2941 RMK AO2 P0000 FZRANO
PARY 242221Z AUTO 07004KT 2SM -SN BR OVC005 M02/M03 A2942 RMK AO2 P0000 FZRANO
PARY 242156Z AUTO 06004KT 9SM -SN BKN005 OVC009 M02/M03 A2942 RMK AO2 CIG 003V007 SLP973 P0000 T10221028 FZRANO
PARY 242139Z AUTO 07006KT 9SM -SN OVC007 M02/M03 A2942 RMK AO2 CIG 002V010 P0000 FZRANO
PARY 242056Z AUTO 06004KT 9SM -SN BKN005 OVC009 M02/M03 A2942 RMK AO2 SNB10 CIG 004V008 SLP977 P0000 60000 T10221033 50001 FZRANO
PARY 242038Z AUTO 06006KT 5SM -SN BR OVC007 M02/M03 A2942 RMK AO2 SNB10 CIG 002V009 P0000 FZRANO
PARY 242031Z AUTO 07007KT 2 1/2SM -SN BR OVC005 M02/M03 A2942 RMK AO2 SNB10 CIG 002V009 P0000 FZRANO
PARY 242024Z AUTO 06006KT 2SM -SN BR OVC003 M02/M03 A2942 RMK AO2 SNB10 CIG 002V007 P0000 FZRANO
PARY 241956Z AUTO 06004KT 10SM OVC003 M02/M03 A2943 RMK AO2 SLP978 T10221028 FZRANO
PARY 241945Z AUTO 05003KT 6SM BR OVC003 M02/M03 A2943 RMK AO2 FZRANO
PARY 241937Z AUTO 06004KT 2 1/2SM BR BKN003 OVC008 M02/M03 A2942 RMK AO2 VIS 1V5 CIG 002V006 FZRANO
PARY 241932Z AUTO 07004KT 1SM BR BKN003 OVC008 M02/M03 A2942 RMK AO2 VIS 1/2V4 CIG 002V007 FZRANO
PARY 241928Z AUTO 07005KT 1/2SM FZFG BKN004 OVC008 M02/M03 A2942 RMK AO2 CIG 002V007 FZRANO
PARY 241915Z AUTO 07006KT 1/4SM FZFG OVC008 M02/M03 A2942 RMK AO2 CIG 002V009 FZRANO
PARY 241903Z AUTO 06004KT 1/2SM FZFG SCT004 OVC008 M02/M03 A2942 RMK AO2 FZRANO
PARY 241856Z AUTO 06005KT 1/4SM FZFG BKN004 OVC008 M02/M03 A2942 RMK AO2 SNE22 SLP976 P0000 T10171028 FZRANO
PARY 241834Z AUTO 06005KT 1/4SM FZFG BKN004 OVC011 M02/M02 A2942 RMK AO2 SNE22 P0000 FZRANO
PARY 241822Z AUTO 06004KT 1/4SM FZFG SCT004 OVC011 M02/M03 A2942 RMK AO2 SNE22 P0000 FZRANO
PARY 241805Z AUTO 07005KT 1/4SM -SN FZFG OVC011 M02/M03 A2942 RMK AO2 P0000 FZRANO
PARY 241756Z AUTO 07005KT 1/2SM -SN FZFG FEW004 OVC011 M02/M03 A2942 RMK AO2 SLP974 P0000 60000 T10221028 11006 21022 50005 FZRANO
PARY 241743Z AUTO 07005KT 1/2SM -SN FZFG SCT004 OVC011 M02/M03 A2942 RMK AO2 P0000 FZRANO
PARY 241723Z AUTO 06005KT 3/4SM -SN BR OVC004 M02/M03 A2942 RMK AO2 P0000 FZRANO
PARY 241713Z AUTO 07005KT 1 3/4SM -SN BR OVC004 M02/M03 A2942 RMK AO2 VIS 1 1/4V5 P0000 FZRANO
PARY 241704Z AUTO 07005KT 5SM -SN BR OVC004 M02/M03 A2942 RMK AO2 P0000 FZRANO
PARY 241656Z AUTO 07004KT 2 1/2SM -SN BR OVC004 M02/M03 A2943 RMK AO2 VIS 1 1/2V4 SNB53 SLP978 P0000 T10171028 FZRANO
PARY 241646Z AUTO 06003KT 1 1/4SM BR OVC004 M02/M03 A2942 RMK AO2 FZRANO
PARY 241631Z AUTO 00000KT 3/4SM BR OVC004 M02/M03 A2942 RMK AO2 CIG 002V006 FZRANO
PARY 241614Z AUTO 06004KT 1/2SM FZFG OVC002 M02/M02 A2942 RMK AO2 FZRANO
PARY 241606Z AUTO 06005KT 3/4SM BR OVC002 M02/M02 A2942 RMK AO2 VIS 1/2V3 FZRANO
PARY 241559Z AUTO 07004KT 1 1/4SM BR OVC002 M02/M02 A2942 RMK AO2 VIS 1/2V3 FZRANO
PARY 241556Z AUTO 07004KT 3/4SM BR OVC002 M02/M02 A2942 RMK AO2 SLP974 T10171022 FZRANO
PARY 241532Z AUTO 08003KT 1/2SM FZFG OVC002 M01/M02 A2941 RMK AO2 FZRANO
PARY 241456Z AUTO 00000KT 3/4SM BR OVC002 M01/M01 A2940 RMK AO2 SLP970 T10061011 50005 FZRANO
PARY 241454Z AUTO 00000KT 1SM BR OVC002 M01/M01 A2940 RMK AO2 FZRANO
PARY 241439Z AUTO 20003KT 1 3/4SM BR OVC002 M01/M01 A2940 RMK AO2 VIS 1 1/4V2 1/2 FZRANO
PARY 241429Z AUTO 19003KT 3SM BR OVC002 M01/M01 A2940 RMK AO2 FZRANO
PARY 241425Z AUTO 00000KT 1 1/4SM BR OVC002 M01/M01 A2940 RMK AO2 FZRANO
PARY 241411Z AUTO 00000KT 3/4SM BR OVC002 M01/M01 A2940 RMK AO2 FZRANO
PARY 241403Z AUTO 00000KT 1 3/4SM BR OVC002 M01/M01 A2940 RMK AO2 VIS 1 1/4V3 FZRANO
PARY 241356Z AUTO 00000KT 3SM BR OVC002 M01/M01 A2940 RMK AO2 SLP968 T10061011 FZRANO
PARY 241324Z AUTO 00000KT 3SM BR OVC002 M01/M01 A2939 RMK AO2 FZRANO
PARY 241256Z AUTO 00000KT 1 1/4SM BR OVC002 M01/M01 A2939 RMK AO2 VIS 3/4V2 SLP964 T10061011 FZRANO
PARY 241245Z AUTO 00000KT 1 3/4SM BR OVC002 M01/M01 A2938 RMK AO2 VIS 1V5 FZRANO